METAR AND TAF INFORMATION
METAR FOR LSZB
ADDS - METARS form results

(0445 UTC 26 February 2020)
Data provider http://aviationweather.gov/metar/data/
 
METAR text: LSZB 260420Z AUTO 27004KT 190V330 9999 FEW038 SCT046 02/M01 Q1005 RESN
Conditions at: LSZB (BERN/BELP , CH) observed 0420 UTC 26 February 2020
Temperature: 2.0°C (36°F)
Dewpoint: -1.0°C (30°F) [RH = 80%]
Pressure (altimeter): 29.68 inches Hg (1005.0 mb)
Winds: from the W (270 degrees) at 5 MPH (4 knots; 2.1 m/s)
Visibility: 6 or more miles (10+ km)
Ceiling: at least 12,000 feet AGL
Clouds: few clouds at 3800 feet AGL
scattered clouds at 4600 feet AGL
Weather: no significant weather observed at this time

METAR text: LSZB 260350Z AUTO 26016G31KT 6000 -SN BKN030 02/M01 Q1005
Conditions at: LSZB (BERN/BELP , CH) observed 0350 UTC 26 February 2020
Temperature: 2.0°C (36°F)
Dewpoint: -1.0°C (30°F) [RH = 80%]
Pressure (altimeter): 29.68 inches Hg (1005.0 mb)
Winds: from the W (260 degrees) at 18 MPH (16 knots; 8.2 m/s)
gusting to 36 MPH (31 knots; 15.9 m/s)
Visibility: 4 miles ( 6 km)
Ceiling: 3000 feet AGL
Clouds: broken clouds at 3000 feet AGL
Weather: -SN  (light snow)

 AIRPORT MAP

 RUNWAY INFORMATION
Runway 14 Runway length 4954 ft Runway width 98 ft
Runway elevation 1668 ft Runway displaced threshold 656 ft Runway heading 140
Runway 32 Runway length 4954 ft Runway width 98 ft
Runway elevation 1674 ft Runway displaced threshold 360 ft Runway heading 320
Runway 14L Runway length 2133 ft Runway width 98 ft
Runway elevation 0 ft Runway displaced threshold 0 ft Runway heading 140
Runway 32R Runway length 2133 ft Runway width 98 ft
Runway elevation 0 ft Runway displaced threshold 0 ft Runway heading 320
Runway 14R Runway length 2125 ft Runway width 98 ft
Runway elevation 0 ft Runway displaced threshold 0 ft Runway heading 140
Runway 32L Runway length 2125 ft Runway width 98 ft
Runway elevation 0 ft Runway displaced threshold 0 ft Runway heading 320

 AIRPORT FREQUENCIES
Type A/D Name APP/DEP Frequency 127.325 MHZ
Type ATIS Name ATIS Frequency 125.125 MHZ
Type MISC Name GLIDER Frequency 123.4 MHZ
Type OPS Name ALPAR Frequency 135.75 MHZ
Type TWR Name TWR Frequency 121.025 MHZ

 AIRPORT NEAR NAVIGATION AIDS
Type NDB Name Bern Frequency 335 KHZ
Type NDB Name Muri Frequency 312 KHZ
Type NDB Name Schupberg Frequency 357 KHZ



Powered by Virtual Airlines Manager [v2.6.2]